Time,TemperatureF,DewpointF,PressureIn,WindDirection,WindDirectionDegrees,WindSpeedMPH,WindSpeedGustMPH,Humidity,HourlyPrecipIn,Conditions,Clouds,dailyrainin,SoftwareType,DateUTC
2013-05-05 00:01:00,56.8,34.6,29.97,North,350,0.0,2.0,43,0.00,,SKC,0.00,VWS V14.01,2013-05-05 05:01:00,
2013-05-05 00:06:00,57.9,34.4,29.97,North,351,1.0,2.0,41,0.00,,SKC,0.00,VWS V14.01,2013-05-05 05:06:00,
2013-05-05 00:11:00,58.8,34.5,29.97,North,351,1.0,1.0,40,0.00,,SKC,0.00,VWS V14.01,2013-05-05 05:11:00,
2013-05-05 00:16:00,59.0,34.1,29.98,North,350,0.0,1.0,39,0.00,,SKC,0.00,VWS V14.01,2013-05-05 05:16:00,
2013-05-05 00:21:00,59.0,34.1,29.98,North,351,0.0,0.0,39,0.00,,SKC,0.00,VWS V14.01,2013-05-05 05:21:00,
2013-05-05 00:26:00,59.0,33.5,29.97,North,350,1.0,1.0,38,0.00,,SKC,0.00,VWS V14.01,2013-05-05 05:26:00,
2013-05-05 00:31:00,59.0,33.5,29.98,NNE,14,2.0,3.0,38,0.00,,SKC,0.00,VWS V14.01,2013-05-05 05:31:00,
2013-05-05 00:36:00,59.0,33.5,29.98,NNE,31,0.0,1.0,38,0.00,,SKC,0.00,VWS V14.01,2013-05-05 05:36:00,
2013-05-05 00:41:00,59.1,33.5,29.98,NE,34,1.0,3.0,38,0.00,,SKC,0.00,VWS V14.01,2013-05-05 05:41:00,
2013-05-05 00:46:00,59.0,33.5,29.98,NE,34,2.0,3.0,38,0.00,,SKC,0.00,VWS V14.01,2013-05-05 05:46:00,
2013-05-05 00:51:00,59.0,34.1,29.98,NE,34,1.0,2.0,39,0.00,,SKC,0.00,VWS V14.01,2013-05-05 05:51:00,
2013-05-05 00:56:00,58.8,33.9,29.98,NE,34,0.0,2.0,39,0.00,,SKC,0.00,VWS V14.01,2013-05-05 05:56:00,
2013-05-05 01:01:00,58.4,34.2,29.98,NE,40,3.0,4.0,40,0.00,,SKC,0.00,VWS V14.01,2013-05-05 06:01:00,
2013-05-05 01:06:00,58.1,34.5,29.98,NE,38,2.0,2.0,41,0.00,,SKC,0.00,VWS V14.01,2013-05-05 06:06:00,
2013-05-05 01:11:00,58.0,33.8,29.98,NE,40,1.0,4.0,40,0.00,,SKC,0.00,VWS V14.01,2013-05-05 06:11:00,
2013-05-05 01:16:00,58.2,34.0,29.98,NE,52,2.0,4.0,40,0.00,,SKC,0.00,VWS V14.01,2013-05-05 06:16:00,
2013-05-05 01:21:00,58.6,33.7,29.98,NE,42,2.0,6.0,39,0.00,,SKC,0.00,VWS V14.01,2013-05-05 06:21:00,
2013-05-05 01:26:00,58.8,33.9,29.98,NE,39,2.0,4.0,39,0.00,,SKC,0.00,VWS V14.01,2013-05-05 06:26:00,
2013-05-05 01:31:00,58.7,33.8,29.98,NE,53,1.0,4.0,39,0.00,,SKC,0.00,VWS V14.01,2013-05-05 06:31:00,
2013-05-05 01:36:00,58.6,33.7,29.98,ENE,63,6.0,6.0,39,0.00,,SKC,0.00,VWS V14.01,2013-05-05 06:36:00,
2013-05-05 01:41:00,58.4,33.6,29.98,ENE,57,2.0,4.0,39,0.00,,SKC,0.00,VWS V14.01,2013-05-05 06:41:00,
2013-05-05 01:46:00,58.3,33.5,29.98,NE,51,3.0,4.0,39,0.00,,SKC,0.00,VWS V14.01,2013-05-05 06:46:00,
2013-05-05 01:51:00,58.2,34.0,29.98,NNE,26,4.0,5.0,40,0.00,,SKC,0.00,VWS V14.01,2013-05-05 06:51:00,
2013-05-05 01:56:00,58.2,33.4,29.98,NE,48,4.0,6.0,39,0.00,,SKC,0.00,VWS V14.01,2013-05-05 06:56:00,
2013-05-05 02:01:00,58.2,33.4,29.98,ENE,76,4.0,5.0,39,0.00,,SKC,0.00,VWS V14.01,2013-05-05 07:01:00,
2013-05-05 02:06:00,58.0,33.8,29.98,NE,48,3.0,4.0,40,0.00,,SKC,0.00,VWS V14.01,2013-05-05 07:06:00,
2013-05-05 02:11:00,57.8,33.7,29.98,ENE,57,2.0,4.0,40,0.00,,SKC,0.00,VWS V14.01,2013-05-05 07:11:00,
2013-05-05 02:16:00,57.6,33.5,29.97,NE,45,2.0,4.0,40,0.00,,SKC,0.00,VWS V14.01,2013-05-05 07:16:00,
2013-05-05 02:21:00,57.4,33.9,29.98,ENE,64,2.0,5.0,41,0.00,,SKC,0.00,VWS V14.01,2013-05-05 07:21:00,
2013-05-05 02:26:00,57.1,33.6,29.97,ENE,63,2.0,3.0,41,0.00,,SKC,0.00,VWS V14.01,2013-05-05 07:26:00,
2013-05-05 02:31:00,56.7,33.3,29.97,ENE,61,3.0,5.0,41,0.00,,SKC,0.00,VWS V14.01,2013-05-05 07:31:00,
2013-05-05 02:36:00,56.6,33.8,29.97,NE,56,4.0,5.0,42,0.00,,SKC,0.00,VWS V14.01,2013-05-05 07:36:00,
2013-05-05 02:41:00,56.6,33.8,29.97,ENE,61,3.0,3.0,42,0.00,,SKC,0.00,VWS V14.01,2013-05-05 07:41:00,
2013-05-05 02:46:00,56.6,33.8,29.97,ENE,65,0.0,2.0,42,0.00,,SKC,0.00,VWS V14.01,2013-05-05 07:46:00,
2013-05-05 02:51:00,56.2,34.0,29.97,ENE,64,0.0,0.0,43,0.00,,SKC,0.00,VWS V14.01,2013-05-05 07:51:00,
2013-05-05 02:56:00,55.5,34.0,29.97,ENE,64,0.0,0.0,44,0.00,,SKC,0.00,VWS V14.01,2013-05-05 07:56:00,
2013-05-05 03:01:00,54.9,33.4,29.97,ENE,65,0.0,0.0,44,0.00,,SKC,0.00,VWS V14.01,2013-05-05 08:01:00,
2013-05-05 03:06:00,54.8,33.3,29.97,ENE,65,0.0,0.0,44,0.00,,SKC,0.00,VWS V14.01,2013-05-05 08:06:00,
2013-05-05 03:11:00,54.7,33.2,29.97,ENE,65,0.0,0.0,44,0.00,,SKC,0.00,VWS V14.01,2013-05-05 08:11:00,
2013-05-05 03:16:00,54.7,32.7,29.97,ENE,64,0.0,0.0,43,0.00,,SKC,0.00,VWS V14.01,2013-05-05 08:16:00,
2013-05-05 03:21:00,54.8,33.3,29.97,ENE,65,0.0,1.0,44,0.00,,SKC,0.00,VWS V14.01,2013-05-05 08:21:00,
2013-05-05 03:26:00,54.4,34.1,29.97,ENE,65,0.0,1.0,46,0.00,,SKC,0.00,VWS V14.01,2013-05-05 08:26:00,
2013-05-05 03:31:00,54.0,33.2,29.97,ENE,65,0.0,0.0,45,0.00,,SKC,0.00,VWS V14.01,2013-05-05 08:31:00,
2013-05-05 03:36:00,53.8,33.0,29.97,ENE,64,0.0,0.0,45,0.00,,SKC,0.00,VWS V14.01,2013-05-05 08:36:00,
2013-05-05 03:41:00,53.6,32.8,29.97,ENE,65,0.0,0.0,45,0.00,,SKC,0.00,VWS V14.01,2013-05-05 08:41:00,
2013-05-05 03:46:00,53.6,32.8,29.97,ENE,65,0.0,0.0,45,0.00,,SKC,0.00,VWS V14.01,2013-05-05 08:46:00,
2013-05-05 03:51:00,53.3,32.5,29.98,ENE,64,0.0,0.0,45,0.00,,SKC,0.00,VWS V14.01,2013-05-05 08:51:00,
2013-05-05 03:56:00,52.6,33.0,29.98,ENE,64,0.0,1.0,47,0.00,,SKC,0.00,VWS V14.01,2013-05-05 08:56:00,
2013-05-05 04:01:00,51.4,33.4,29.98,North,360,1.0,2.0,50,0.00,,SKC,0.00,VWS V14.01,2013-05-05 09:01:00,
2013-05-05 04:06:00,50.8,33.3,29.98,North,360,0.0,1.0,51,0.00,,SKC,0.00,VWS V14.01,2013-05-05 09:06:00,
2013-05-05 04:11:00,50.3,33.4,29.98,North,360,2.0,2.0,52,0.00,,SKC,0.00,VWS V14.01,2013-05-05 09:11:00,
2013-05-05 04:16:00,50.2,32.3,29.98,North,360,0.0,0.0,50,0.00,,SKC,0.00,VWS V14.01,2013-05-05 09:16:00,
2013-05-05 04:21:00,50.8,32.8,29.99,North,360,0.0,0.0,50,0.00,,SKC,0.00,VWS V14.01,2013-05-05 09:21:00,
2013-05-05 04:26:00,51.1,32.6,29.99,North,360,0.0,1.0,49,0.00,,SKC,0.00,VWS V14.01,2013-05-05 09:26:00,
2013-05-05 04:31:00,51.6,32.6,29.99,NNE,15,0.0,0.0,48,0.00,,SKC,0.00,VWS V14.01,2013-05-05 09:31:00,
2013-05-05 04:36:00,52.1,32.5,29.99,NNE,16,0.0,0.0,47,0.00,,SKC,0.00,VWS V14.01,2013-05-05 09:36:00,
2013-05-05 04:41:00,52.3,32.7,29.99,NNE,16,1.0,2.0,47,0.00,,SKC,0.00,VWS V14.01,2013-05-05 09:41:00,
2013-05-05 04:46:00,52.3,32.7,29.99,NNE,19,2.0,2.0,47,0.00,,SKC,0.00,VWS V14.01,2013-05-05 09:46:00,
2013-05-05 04:51:00,52.2,33.1,29.99,NNE,22,1.0,2.0,48,0.00,,SKC,0.00,VWS V14.01,2013-05-05 09:51:00,
2013-05-05 04:56:00,52.1,33.0,29.99,NNE,22,1.0,1.0,48,0.00,,SKC,0.00,VWS V14.01,2013-05-05 09:56:00,
2013-05-05 05:01:00,51.6,33.1,30.00,NNE,21,0.0,0.0,49,0.00,,SKC,0.00,VWS V14.01,2013-05-05 10:01:00,
2013-05-05 05:06:00,50.8,33.3,30.00,NNE,21,2.0,3.0,51,0.00,,SKC,0.00,VWS V14.01,2013-05-05 10:06:00,
2013-05-05 05:11:00,50.5,33.1,30.00,NNE,24,0.0,2.0,51,0.00,,SKC,0.00,VWS V14.01,2013-05-05 10:11:00,
2013-05-05 05:16:00,50.5,32.6,30.00,NNE,24,1.0,1.0,50,0.00,,SKC,0.00,VWS V14.01,2013-05-05 10:16:00,
2013-05-05 05:21:00,50.5,32.6,30.00,NNE,24,0.0,0.0,50,0.00,,SKC,0.00,VWS V14.01,2013-05-05 10:21:00,
2013-05-05 05:26:00,50.4,32.5,30.00,NNE,25,1.0,1.0,50,0.00,,SKC,0.00,VWS V14.01,2013-05-05 10:26:00,
2013-05-05 05:31:00,50.3,32.4,30.01,NNE,28,1.0,3.0,50,0.00,,SKC,0.00,VWS V14.01,2013-05-05 10:31:00,
2013-05-05 05:36:00,50.2,32.3,30.01,NE,43,1.0,3.0,50,0.00,,SKC,0.00,VWS V14.01,2013-05-05 10:36:00,
2013-05-05 05:41:00,50.1,32.2,30.01,NE,38,0.0,3.0,50,0.00,,SKC,0.00,VWS V14.01,2013-05-05 10:41:00,
2013-05-05 05:46:00,50.0,32.6,30.01,NE,40,1.0,2.0,51,0.00,,SKC,0.00,VWS V14.01,2013-05-05 10:46:00,
2013-05-05 05:51:00,49.7,32.3,30.01,NNE,33,3.0,4.0,51,0.00,,SKC,0.00,VWS V14.01,2013-05-05 10:51:00,
2013-05-05 05:56:00,49.5,32.1,30.01,NE,40,3.0,4.0,51,0.00,,SKC,0.00,VWS V14.01,2013-05-05 10:56:00,
2013-05-05 06:01:00,49.2,32.3,30.02,NE,38,1.0,2.0,52,0.00,,SKC,0.00,VWS V14.01,2013-05-05 11:01:00,
2013-05-05 06:06:00,49.0,32.2,30.02,NE,41,2.0,3.0,52,0.00,,SKC,0.00,VWS V14.01,2013-05-05 11:06:00,
2013-05-05 06:11:00,48.7,32.3,30.02,NE,53,0.0,2.0,53,0.00,,SKC,0.00,VWS V14.01,2013-05-05 11:11:00,
2013-05-05 06:16:00,48.4,32.5,30.02,NE,53,0.0,2.0,54,0.00,,SKC,0.00,VWS V14.01,2013-05-05 11:16:00,
2013-05-05 06:21:00,48.0,32.6,30.02,NE,50,1.0,3.0,55,0.00,,SKC,0.00,VWS V14.01,2013-05-05 11:21:00,
2013-05-05 06:26:00,47.6,32.2,30.02,NE,52,2.0,3.0,55,0.00,,SKC,0.00,VWS V14.01,2013-05-05 11:26:00,
2013-05-05 06:31:00,47.5,32.6,30.03,NE,53,3.0,3.0,56,0.00,,SKC,0.00,VWS V14.01,2013-05-05 11:31:00,
2013-05-05 06:36:00,47.4,33.0,30.03,NE,53,2.0,4.0,57,0.00,,SKC,0.00,VWS V14.01,2013-05-05 11:36:00,
2013-05-05 06:41:00,47.3,32.8,30.04,ENE,57,0.0,3.0,57,0.00,,SKC,0.00,VWS V14.01,2013-05-05 11:41:00,
2013-05-05 06:46:00,47.3,32.8,30.04,ENE,57,0.0,2.0,57,0.00,,SKC,0.00,VWS V14.01,2013-05-05 11:46:00,
2013-05-05 06:51:00,47.0,33.0,30.04,NE,55,0.0,1.0,58,0.00,,SKC,0.00,VWS V14.01,2013-05-05 11:51:00,
2013-05-05 06:56:00,46.7,32.7,30.05,NE,55,2.0,2.0,58,0.00,,SKC,0.00,VWS V14.01,2013-05-05 11:56:00,
2013-05-05 07:01:00,46.5,33.0,30.05,ENE,57,1.0,2.0,59,0.00,,SKC,0.00,VWS V14.01,2013-05-05 12:01:00,
2013-05-05 07:06:00,46.3,32.8,30.05,ENE,59,1.0,2.0,59,0.00,,SKC,0.00,VWS V14.01,2013-05-05 12:06:00,
2013-05-05 07:11:00,46.3,33.2,30.05,ENE,57,2.0,2.0,60,0.00,,SKC,0.00,VWS V14.01,2013-05-05 12:11:00,
2013-05-05 07:16:00,46.3,33.6,30.06,NE,42,4.0,4.0,61,0.00,,SKC,0.00,VWS V14.01,2013-05-05 12:16:00,
2013-05-05 07:21:00,46.4,34.1,30.06,NE,42,2.0,3.0,62,0.00,,SKC,0.00,VWS V14.01,2013-05-05 12:21:00,
2013-05-05 07:26:00,46.8,34.5,30.06,NE,42,2.0,4.0,62,0.00,,SKC,0.00,VWS V14.01,2013-05-05 12:26:00,
2013-05-05 07:31:00,47.3,34.5,30.07,NE,42,5.0,6.0,61,0.00,,SKC,0.00,VWS V14.01,2013-05-05 12:31:00,
2013-05-05 07:36:00,47.8,35.0,30.07,NNE,31,4.0,5.0,61,0.00,,SKC,0.00,VWS V14.01,2013-05-05 12:36:00,
2013-05-05 07:41:00,48.2,35.0,30.07,NNE,27,4.0,6.0,60,0.00,,SKC,0.00,VWS V14.01,2013-05-05 12:41:00,
2013-05-05 07:46:00,48.5,35.3,30.07,NNE,25,6.0,7.0,60,0.00,,SKC,0.00,VWS V14.01,2013-05-05 12:46:00,
2013-05-05 07:51:00,48.9,35.6,30.07,North,9,3.0,6.0,60,0.00,,SKC,0.00,VWS V14.01,2013-05-05 12:51:00,
2013-05-05 07:56:00,49.4,36.1,30.07,NE,55,7.0,10.0,60,0.00,,SKC,0.00,VWS V14.01,2013-05-05 12:56:00,
2013-05-05 08:01:00,49.9,36.2,30.08,NNE,25,9.0,13.0,59,0.00,,SKC,0.00,VWS V14.01,2013-05-05 13:01:00,
2013-05-05 08:06:00,50.2,36.4,30.08,NNE,12,5.0,10.0,59,0.00,,SKC,0.00,VWS V14.01,2013-05-05 13:06:00,
2013-05-05 08:11:00,50.6,36.8,30.08,NNE,16,5.0,11.0,59,0.00,,SKC,0.00,VWS V14.01,2013-05-05 13:11:00,
2013-05-05 08:16:00,50.9,37.1,30.08,NNE,26,3.0,8.0,59,0.00,,SKC,0.00,VWS V14.01,2013-05-05 13:16:00,
2013-05-05 08:21:00,51.3,37.9,30.09,ENE,63,5.0,9.0,60,0.00,,SKC,0.00,VWS V14.01,2013-05-05 13:21:00,
2013-05-05 08:26:00,51.7,37.8,30.08,NNE,33,9.0,9.0,59,0.00,,SKC,0.00,VWS V14.01,2013-05-05 13:26:00,
2013-05-05 08:31:00,51.9,38.0,30.09,NNE,24,3.0,10.0,59,0.00,,SKC,0.00,VWS V14.01,2013-05-05 13:31:00,
2013-05-05 08:36:00,52.1,38.2,30.09,NE,48,4.0,6.0,59,0.00,,SKC,0.00,VWS V14.01,2013-05-05 13:36:00,
2013-05-05 08:41:00,52.5,38.2,30.09,NNE,26,1.0,6.0,58,0.00,,SKC,0.00,VWS V14.01,2013-05-05 13:41:00,
2013-05-05 08:46:00,52.8,38.0,30.09,ENE,60,7.0,8.0,57,0.00,,SKC,0.00,VWS V14.01,2013-05-05 13:46:00,
2013-05-05 08:51:00,53.0,38.2,30.09,NE,35,3.0,7.0,57,0.00,,SKC,0.00,VWS V14.01,2013-05-05 13:51:00,
2013-05-05 08:56:00,53.4,38.6,30.09,NNE,18,9.0,9.0,57,0.00,,SKC,0.00,VWS V14.01,2013-05-05 13:56:00,
2013-05-05 09:01:00,53.8,38.5,30.09,NNE,17,3.0,11.0,56,0.00,,SKC,0.00,VWS V14.01,2013-05-05 14:01:00,
2013-05-05 09:06:00,54.1,38.3,30.09,NE,37,3.0,10.0,55,0.00,,SKC,0.00,VWS V14.01,2013-05-05 14:06:00,
2013-05-05 09:11:00,54.5,38.7,30.09,ENE,57,8.0,10.0,55,0.00,,SKC,0.00,VWS V14.01,2013-05-05 14:11:00,
2013-05-05 09:16:00,54.6,38.8,30.09,North,9,6.0,9.0,55,0.00,,SKC,0.00,VWS V14.01,2013-05-05 14:16:00,
2013-05-05 09:21:00,54.9,39.5,30.09,North,355,2.0,7.0,56,0.00,,SKC,0.00,VWS V14.01,2013-05-05 14:21:00,
2013-05-05 09:26:00,55.4,39.5,30.10,NE,46,7.0,7.0,55,0.00,,SKC,0.00,VWS V14.01,2013-05-05 14:26:00,
2013-05-05 09:31:00,55.6,39.2,30.10,NE,53,4.0,9.0,54,0.00,,SKC,0.00,VWS V14.01,2013-05-05 14:31:00,
2013-05-05 09:36:00,55.9,39.5,30.10,NE,38,6.0,10.0,54,0.00,,SKC,0.00,VWS V14.01,2013-05-05 14:36:00,
2013-05-05 09:41:00,56.2,39.3,30.10,North,360,4.0,6.0,53,0.00,,SKC,0.00,VWS V14.01,2013-05-05 14:41:00,
2013-05-05 09:46:00,56.6,39.7,30.10,NE,48,2.0,5.0,53,0.00,,SKC,0.00,VWS V14.01,2013-05-05 14:46:00,
2013-05-05 09:51:00,57.0,40.1,30.10,North,5,4.0,10.0,53,0.00,,SKC,0.00,VWS V14.01,2013-05-05 14:51:00,
2013-05-05 09:56:00,57.2,40.2,30.11,North,10,6.0,11.0,53,0.00,,SKC,0.00,VWS V14.01,2013-05-05 14:56:00,
2013-05-05 10:01:00,57.6,40.6,30.10,NNW,346,5.0,14.0,53,0.00,,SKC,0.00,VWS V14.01,2013-05-05 15:01:00,
2013-05-05 10:06:00,57.6,40.1,30.10,NE,51,4.0,12.0,52,0.00,,SKC,0.00,VWS V14.01,2013-05-05 15:06:00,
2013-05-05 10:11:00,57.5,41.0,30.10,NNE,31,6.0,10.0,54,0.00,,SKC,0.00,VWS V14.01,2013-05-05 15:11:00,
2013-05-05 10:16:00,57.8,40.3,30.10,NNE,17,7.0,13.0,52,0.00,,SKC,0.00,VWS V14.01,2013-05-05 15:16:00,
2013-05-05 10:21:00,58.0,40.0,30.10,North,5,11.0,12.0,51,0.00,,SKC,0.00,VWS V14.01,2013-05-05 15:21:00,
2013-05-05 10:26:00,58.5,40.5,30.10,NNE,14,13.0,13.0,51,0.00,,SKC,0.00,VWS V14.01,2013-05-05 15:26:00,
2013-05-05 10:31:00,58.7,41.1,30.10,North,10,6.0,11.0,52,0.00,,SKC,0.00,VWS V14.01,2013-05-05 15:31:00,
2013-05-05 10:36:00,58.7,41.6,30.10,NNE,24,7.0,9.0,53,0.00,,SKC,0.00,VWS V14.01,2013-05-05 15:36:00,
2013-05-05 10:41:00,59.0,41.4,30.10,North,355,4.0,5.0,52,0.00,,SKC,0.00,VWS V14.01,2013-05-05 15:41:00,
2013-05-05 10:46:00,59.3,41.2,30.11,NNW,331,6.0,10.0,51,0.00,,SKC,0.00,VWS V14.01,2013-05-05 15:46:00,
2013-05-05 10:51:00,59.9,40.2,30.11,North,360,10.0,13.0,48,0.00,,SKC,0.00,VWS V14.01,2013-05-05 15:51:00,
2013-05-05 10:56:00,59.8,40.1,30.11,NNE,15,9.0,11.0,48,0.00,,SKC,0.00,VWS V14.01,2013-05-05 15:56:00,
2013-05-05 11:01:00,60.2,41.5,30.11,North,11,6.0,9.0,50,0.00,,SKC,0.00,VWS V14.01,2013-05-05 16:01:00,
2013-05-05 11:06:00,60.4,40.1,30.11,NNE,28,9.0,11.0,47,0.00,,SKC,0.00,VWS V14.01,2013-05-05 16:06:00,
2013-05-05 11:11:00,60.4,40.6,30.11,NNE,19,7.0,11.0,48,0.00,,SKC,0.00,VWS V14.01,2013-05-05 16:11:00,
2013-05-05 11:16:00,60.4,41.2,30.11,NNE,26,4.0,11.0,49,0.00,,SKC,0.00,VWS V14.01,2013-05-05 16:16:00,
2013-05-05 11:21:00,61.1,42.3,30.11,NNW,328,6.0,6.0,50,0.00,,SKC,0.00,VWS V14.01,2013-05-05 16:21:00,
2013-05-05 11:26:00,61.6,41.7,30.11,NNE,30,2.0,6.0,48,0.00,,SKC,0.00,VWS V14.01,2013-05-05 16:26:00,
2013-05-05 11:31:00,61.9,42.5,30.11,NNE,13,9.0,13.0,49,0.00,,SKC,0.00,VWS V14.01,2013-05-05 16:31:00,
2013-05-05 11:36:00,61.9,42.0,30.11,North,360,5.0,10.0,48,0.00,,SKC,0.00,VWS V14.01,2013-05-05 16:36:00,
2013-05-05 11:41:00,62.1,42.2,30.11,NNW,342,3.0,7.0,48,0.00,,SKC,0.00,VWS V14.01,2013-05-05 16:41:00,
2013-05-05 11:46:00,62.6,43.2,30.11,North,360,4.0,7.0,49,0.00,,SKC,0.00,VWS V14.01,2013-05-05 16:46:00,
2013-05-05 11:51:00,63.2,43.2,30.11,North,355,4.0,7.0,48,0.00,,SKC,0.00,VWS V14.01,2013-05-05 16:51:00,
2013-05-05 11:56:00,63.5,42.4,30.11,North,360,6.0,10.0,46,0.00,,SKC,0.00,VWS V14.01,2013-05-05 16:56:00,
2013-05-05 12:01:00,63.2,43.2,30.11,North,5,6.0,13.0,48,0.00,,SKC,0.00,VWS V14.01,2013-05-05 17:01:00,
2013-05-05 12:06:00,63.3,43.3,30.11,NNE,15,3.0,6.0,48,0.00,,SKC,0.00,VWS V14.01,2013-05-05 17:06:00,
2013-05-05 12:11:00,64.2,44.1,30.11,North,349,4.0,12.0,48,0.00,,SKC,0.00,VWS V14.01,2013-05-05 17:11:00,
2013-05-05 12:16:00,64.5,42.7,30.11,North,5,2.0,4.0,45,0.00,,SKC,0.00,VWS V14.01,2013-05-05 17:16:00,
2013-05-05 12:21:00,64.7,42.9,30.11,NNE,18,5.0,5.0,45,0.00,,SKC,0.00,VWS V14.01,2013-05-05 17:21:00,
2013-05-05 12:26:00,64.7,42.3,30.10,NNW,344,4.0,6.0,44,0.00,,SKC,0.00,VWS V14.01,2013-05-05 17:26:00,
2013-05-05 12:31:00,64.5,43.8,30.10,NNE,17,5.0,12.0,47,0.00,,SKC,0.00,VWS V14.01,2013-05-05 17:31:00,
2013-05-05 12:36:00,65.0,43.7,30.10,NNE,29,2.0,11.0,46,0.00,,SKC,0.00,VWS V14.01,2013-05-05 17:36:00,
2013-05-05 12:41:00,65.8,43.9,30.10,NNE,13,2.0,6.0,45,0.00,,SKC,0.00,VWS V14.01,2013-05-05 17:41:00,
2013-05-05 12:46:00,65.9,42.8,30.10,NW,312,3.0,9.0,43,0.00,,SKC,0.00,VWS V14.01,2013-05-05 17:46:00,
2013-05-05 12:51:00,65.9,44.0,30.09,NE,39,9.0,11.0,45,0.00,,SKC,0.00,VWS V14.01,2013-05-05 17:51:00,
2013-05-05 12:56:00,65.8,42.7,30.09,North,360,4.0,4.0,43,0.00,,SKC,0.00,VWS V14.01,2013-05-05 17:56:00,
2013-05-05 13:01:00,66.0,42.9,30.09,NNW,341,3.0,4.0,43,0.00,,SKC,0.00,VWS V14.01,2013-05-05 18:01:00,
2013-05-05 13:06:00,66.3,44.9,30.09,NW,325,6.0,6.0,46,0.00,,SKC,0.00,VWS V14.01,2013-05-05 18:06:00,
2013-05-05 13:11:00,67.2,44.6,30.09,North,351,7.0,7.0,44,0.00,,SKC,0.00,VWS V14.01,2013-05-05 18:11:00,
2013-05-05 13:16:00,67.3,44.7,30.08,NNE,24,11.0,13.0,44,0.00,,SKC,0.00,VWS V14.01,2013-05-05 18:16:00,
2013-05-05 13:21:00,67.0,43.8,30.08,North,355,0.0,6.0,43,0.00,,SKC,0.00,VWS V14.01,2013-05-05 18:21:00,
2013-05-05 13:26:00,67.3,44.1,30.08,NE,34,5.0,10.0,43,0.00,,SKC,0.00,VWS V14.01,2013-05-05 18:26:00,
2013-05-05 13:31:00,67.6,43.7,30.08,North,11,8.0,9.0,42,0.00,,SKC,0.00,VWS V14.01,2013-05-05 18:31:00,
2013-05-05 13:36:00,67.4,44.2,30.08,NNE,33,3.0,9.0,43,0.00,,SKC,0.00,VWS V14.01,2013-05-05 18:36:00,
2013-05-05 13:41:00,67.8,43.3,30.08,North,360,7.0,14.0,41,0.00,,SKC,0.00,VWS V14.01,2013-05-05 18:41:00,
2013-05-05 13:46:00,67.8,43.3,30.07,North,360,5.0,13.0,41,0.00,,SKC,0.00,VWS V14.01,2013-05-05 18:46:00,
2013-05-05 13:51:00,67.9,43.4,30.07,North,355,4.0,5.0,41,0.00,,SKC,0.00,VWS V14.01,2013-05-05 18:51:00,
2013-05-05 13:56:00,68.1,44.8,30.07,North,350,6.0,10.0,43,0.00,,SKC,0.00,VWS V14.01,2013-05-05 18:56:00,
2013-05-05 14:01:00,68.3,42.4,30.07,North,5,7.0,12.0,39,0.00,,SKC,0.00,VWS V14.01,2013-05-05 19:01:00,
2013-05-05 14:06:00,68.5,43.2,30.07,North,349,7.0,11.0,40,0.00,,SKC,0.00,VWS V14.01,2013-05-05 19:06:00,
2013-05-05 14:11:00,68.4,43.2,30.07,NE,36,5.0,5.0,40,0.00,,SKC,0.00,VWS V14.01,2013-05-05 19:11:00,
2013-05-05 14:16:00,69.0,42.4,30.07,North,360,14.0,14.0,38,0.00,,SKC,0.00,VWS V14.01,2013-05-05 19:16:00,
2013-05-05 14:21:00,69.0,43.0,30.07,North,360,6.0,9.0,39,0.00,,SKC,0.00,VWS V14.01,2013-05-05 19:21:00,
2013-05-05 14:26:00,69.0,42.4,30.06,NNW,327,7.0,13.0,38,0.00,,SKC,0.00,VWS V14.01,2013-05-05 19:26:00,
2013-05-05 14:31:00,68.9,42.3,30.06,NE,44,11.0,11.0,38,0.00,,SKC,0.00,VWS V14.01,2013-05-05 19:31:00,
2013-05-05 14:36:00,69.4,42.7,30.06,NNW,338,6.0,13.0,38,0.00,,SKC,0.00,VWS V14.01,2013-05-05 19:36:00,
2013-05-05 14:41:00,69.9,42.5,30.06,North,9,5.0,11.0,37,0.00,,SKC,0.00,VWS V14.01,2013-05-05 19:41:00,
2013-05-05 14:46:00,70.2,43.4,30.06,NE,36,5.0,11.0,38,0.00,,SKC,0.00,VWS V14.01,2013-05-05 19:46:00,
2013-05-05 14:51:00,70.1,42.7,30.05,NW,322,4.0,12.0,37,0.00,,SKC,0.00,VWS V14.01,2013-05-05 19:51:00,
2013-05-05 14:56:00,70.1,42.7,30.05,NNE,15,4.0,14.0,37,0.00,,SKC,0.00,VWS V14.01,2013-05-05 19:56:00,
2013-05-05 15:01:00,70.1,41.9,30.05,NNE,23,5.0,10.0,36,0.00,,SKC,0.00,VWS V14.01,2013-05-05 20:01:00,
2013-05-05 15:06:00,70.5,43.7,30.05,NNE,18,6.0,12.0,38,0.00,,SKC,0.00,VWS V14.01,2013-05-05 20:06:00,
2013-05-05 15:11:00,70.9,42.6,30.05,NNE,33,4.0,10.0,36,0.00,,SKC,0.00,VWS V14.01,2013-05-05 20:11:00,
2013-05-05 15:16:00,70.8,41.8,30.04,NE,37,4.0,7.0,35,0.00,,SKC,0.00,VWS V14.01,2013-05-05 20:16:00,
2013-05-05 15:21:00,70.4,42.9,30.04,NNE,19,7.0,7.0,37,0.00,,SKC,0.00,VWS V14.01,2013-05-05 20:21:00,
2013-05-05 15:26:00,71.2,42.9,30.04,NNE,26,6.0,9.0,36,0.00,,SKC,0.00,VWS V14.01,2013-05-05 20:26:00,
2013-05-05 15:31:00,71.6,42.5,30.04,NNE,22,8.0,8.0,35,0.00,,SKC,0.00,VWS V14.01,2013-05-05 20:31:00,
2013-05-05 15:36:00,71.6,44.0,30.04,NNW,327,1.0,2.0,37,0.00,,SKC,0.00,VWS V14.01,2013-05-05 20:36:00,
2013-05-05 15:41:00,71.9,42.8,30.03,North,355,4.0,6.0,35,0.00,,SKC,0.00,VWS V14.01,2013-05-05 20:41:00,
2013-05-05 15:46:00,72.0,42.9,30.04,NE,45,3.0,6.0,35,0.00,,SKC,0.00,VWS V14.01,2013-05-05 20:46:00,
2013-05-05 15:51:00,72.0,44.3,30.03,NNW,342,0.0,6.0,37,0.00,,SKC,0.00,VWS V14.01,2013-05-05 20:51:00,
2013-05-05 15:56:00,72.0,45.0,30.03,North,360,3.0,9.0,38,0.00,,SKC,0.00,VWS V14.01,2013-05-05 20:56:00,
2013-05-05 16:01:00,72.2,43.8,30.03,NNW,343,4.0,11.0,36,0.00,,SKC,0.00,VWS V14.01,2013-05-05 21:01:00,
2013-05-05 16:06:00,72.1,42.2,30.02,North,5,14.0,14.0,34,0.00,,SKC,0.00,VWS V14.01,2013-05-05 21:06:00,
2013-05-05 16:11:00,72.1,42.2,30.02,North,9,1.0,6.0,34,0.00,,SKC,0.00,VWS V14.01,2013-05-05 21:11:00,
2013-05-05 16:16:00,72.2,43.1,30.02,North,9,2.0,3.0,35,0.00,,SKC,0.00,VWS V14.01,2013-05-05 21:16:00,
2013-05-05 16:21:00,72.5,42.6,30.02,NE,51,5.0,9.0,34,0.00,,SKC,0.00,VWS V14.01,2013-05-05 21:21:00,
2013-05-05 16:26:00,72.8,42.8,30.01,NE,56,5.0,7.0,34,0.00,,SKC,0.00,VWS V14.01,2013-05-05 21:26:00,
2013-05-05 16:31:00,73.0,43.8,30.01,WNW,296,0.0,2.0,35,0.00,,SKC,0.00,VWS V14.01,2013-05-05 21:31:00,
2013-05-05 16:36:00,73.0,42.2,30.01,NNE,21,1.0,1.0,33,0.00,,SKC,0.00,VWS V14.01,2013-05-05 21:36:00,
2013-05-05 16:41:00,73.1,44.6,30.01,North,5,4.0,7.0,36,0.00,,SKC,0.00,VWS V14.01,2013-05-05 21:41:00,
2013-05-05 16:46:00,73.3,44.8,30.01,NNW,342,1.0,4.0,36,0.00,,SKC,0.00,VWS V14.01,2013-05-05 21:46:00,
2013-05-05 16:51:00,73.2,43.9,30.00,NNE,13,5.0,5.0,35,0.00,,SKC,0.00,VWS V14.01,2013-05-05 21:51:00,
2013-05-05 16:56:00,73.1,44.6,30.00,NNE,14,3.0,3.0,36,0.00,,SKC,0.00,VWS V14.01,2013-05-05 21:56:00,
2013-05-05 17:01:00,72.8,43.6,30.00,NW,311,0.0,1.0,35,0.00,,SKC,0.00,VWS V14.01,2013-05-05 22:01:00,
2013-05-05 17:06:00,72.7,43.5,30.00,NW,313,0.0,0.0,35,0.00,,SKC,0.00,VWS V14.01,2013-05-05 22:06:00,
2013-05-05 17:11:00,72.7,45.0,30.00,NNE,15,9.0,9.0,37,0.00,,SKC,0.00,VWS V14.01,2013-05-05 22:11:00,
2013-05-05 17:16:00,72.7,44.2,30.00,North,5,12.0,12.0,36,0.00,,SKC,0.00,VWS V14.01,2013-05-05 22:16:00,
2013-05-05 17:21:00,72.5,43.3,30.00,NNE,31,4.0,6.0,35,0.00,,SKC,0.00,VWS V14.01,2013-05-05 22:21:00,
2013-05-05 17:26:00,72.5,43.3,30.00,North,360,0.0,0.0,35,0.00,,SKC,0.00,VWS V14.01,2013-05-05 22:26:00,
2013-05-05 17:31:00,72.8,44.3,30.00,NNE,29,6.0,6.0,36,0.00,,SKC,0.00,VWS V14.01,2013-05-05 22:31:00,
2013-05-05 17:36:00,73.1,44.6,30.00,NNE,15,3.0,4.0,36,0.00,,SKC,0.00,VWS V14.01,2013-05-05 22:36:00,
2013-05-05 17:41:00,72.7,45.0,30.00,ENE,63,3.0,5.0,37,0.00,,SKC,0.00,VWS V14.01,2013-05-05 22:41:00,
2013-05-05 17:46:00,72.7,43.5,30.00,East,82,8.0,10.0,35,0.00,,SKC,0.00,VWS V14.01,2013-05-05 22:46:00,
2013-05-05 17:51:00,72.5,44.1,30.00,NE,40,5.0,5.0,36,0.00,,SKC,0.00,VWS V14.01,2013-05-05 22:51:00,
2013-05-05 17:56:00,72.8,44.3,30.00,NNE,16,5.0,5.0,36,0.00,,SKC,0.00,VWS V14.01,2013-05-05 22:56:00,
2013-05-05 18:01:00,72.7,44.2,30.00,North,351,7.0,7.0,36,0.00,,SKC,0.00,VWS V14.01,2013-05-05 23:01:00,
2013-05-05 18:06:00,72.5,44.8,30.00,North,355,4.0,5.0,37,0.00,,SKC,0.00,VWS V14.01,2013-05-05 23:06:00,
2013-05-05 18:12:00,72.5,44.8,30.00,NNE,18,5.0,6.0,37,0.00,,SKC,0.00,VWS V14.01,2013-05-05 23:12:00,
2013-05-05 18:16:00,72.6,44.1,30.00,North,360,0.0,0.0,36,0.00,,SKC,0.00,VWS V14.01,2013-05-05 23:16:00,
2013-05-05 18:21:00,72.6,45.6,30.00,NNE,32,4.0,4.0,38,0.00,,SKC,0.00,VWS V14.01,2013-05-05 23:21:00,
2013-05-05 18:26:00,72.6,44.9,30.00,NE,40,3.0,3.0,37,0.00,,SKC,0.00,VWS V14.01,2013-05-05 23:26:00,
2013-05-05 18:31:00,72.3,44.6,30.00,NE,39,5.0,5.0,37,0.00,,SKC,0.00,VWS V14.01,2013-05-05 23:31:00,
2013-05-05 18:36:00,72.0,45.0,30.00,NNE,27,2.0,3.0,38,0.00,,SKC,0.00,VWS V14.01,2013-05-05 23:36:00,
2013-05-05 18:41:00,71.8,44.8,30.00,NE,36,4.0,4.0,38,0.00,,SKC,0.00,VWS V14.01,2013-05-05 23:41:00,
2013-05-05 18:46:00,71.7,44.8,30.00,NNE,26,3.0,3.0,38,0.00,,SKC,0.00,VWS V14.01,2013-05-05 23:46:00,
2013-05-05 18:51:00,71.5,44.6,30.00,NE,36,3.0,3.0,38,0.00,,SKC,0.00,VWS V14.01,2013-05-05 23:51:00,
2013-05-05 18:56:00,71.3,44.4,30.00,North,5,5.0,5.0,38,0.00,,SKC,0.00,VWS V14.01,2013-05-05 23:56:00,
2013-05-05 19:01:00,71.1,44.2,30.00,NNE,16,0.0,1.0,38,0.00,,SKC,0.00,VWS V14.01,2013-05-06 00:01:00,
2013-05-05 19:06:00,70.9,44.7,30.00,NNE,15,5.0,6.0,39,0.00,,SKC,0.00,VWS V14.01,2013-05-06 00:06:00,
2013-05-05 19:11:00,70.6,44.5,30.00,NE,35,3.0,3.0,39,0.00,,SKC,0.00,VWS V14.01,2013-05-06 00:11:00,
2013-05-05 19:16:00,70.4,43.6,30.00,North,5,0.0,0.0,38,0.00,,SKC,0.00,VWS V14.01,2013-05-06 00:16:00,
2013-05-05 19:21:00,70.4,44.3,30.00,NNE,24,4.0,4.0,39,0.00,,SKC,0.00,VWS V14.01,2013-05-06 00:21:00,
2013-05-05 19:26:00,70.0,43.9,30.00,NNE,32,3.0,5.0,39,0.00,,SKC,0.00,VWS V14.01,2013-05-06 00:26:00,
2013-05-05 19:31:00,69.7,43.7,30.00,NNE,13,5.0,5.0,39,0.00,,SKC,0.00,VWS V14.01,2013-05-06 00:31:00,
2013-05-05 19:36:00,69.4,44.1,30.00,NNE,21,3.0,4.0,40,0.00,,SKC,0.00,VWS V14.01,2013-05-06 00:36:00,
2013-05-05 19:41:00,69.1,43.8,30.00,NNE,26,1.0,1.0,40,0.00,,SKC,0.00,VWS V14.01,2013-05-06 00:41:00,
2013-05-05 19:46:00,68.8,44.2,30.00,NNE,30,1.0,3.0,41,0.00,,SKC,0.00,VWS V14.01,2013-05-06 00:46:00,
2013-05-05 19:52:00,68.4,44.4,30.01,NE,35,0.0,0.0,42,0.00,,SKC,0.00,VWS V14.01,2013-05-06 00:52:00,
2013-05-05 19:57:00,68.0,44.7,30.01,NE,37,0.0,0.0,43,0.00,,SKC,0.00,VWS V14.01,2013-05-06 00:57:00,
2013-05-05 20:02:00,67.6,44.3,30.01,NE,37,0.0,0.0,43,0.00,,SKC,0.00,VWS V14.01,2013-05-06 01:02:00,
2013-05-05 20:07:00,67.2,44.6,30.01,NE,37,0.0,0.0,44,0.00,,SKC,0.00,VWS V14.01,2013-05-06 01:07:00,
2013-05-05 20:12:00,66.7,44.7,30.01,NE,37,0.0,0.0,45,0.00,,SKC,0.00,VWS V14.01,2013-05-06 01:12:00,
2013-05-05 20:17:00,66.2,44.8,30.01,NE,37,0.0,0.0,46,0.00,,SKC,0.00,VWS V14.01,2013-05-06 01:17:00,
2013-05-05 20:22:00,65.7,44.4,30.01,NE,37,0.0,1.0,46,0.00,,SKC,0.00,VWS V14.01,2013-05-06 01:22:00,
2013-05-05 20:27:00,65.2,44.5,30.01,NE,37,0.0,0.0,47,0.00,,SKC,0.00,VWS V14.01,2013-05-06 01:27:00,
2013-05-05 20:32:00,64.8,44.7,30.01,NE,37,0.0,0.0,48,0.00,,SKC,0.00,VWS V14.01,2013-05-06 01:32:00,
2013-05-05 20:37:00,64.3,44.2,30.01,NE,37,1.0,1.0,48,0.00,,SKC,0.00,VWS V14.01,2013-05-06 01:37:00,
2013-05-05 20:42:00,63.9,44.4,30.02,NE,37,0.0,0.0,49,0.00,,SKC,0.00,VWS V14.01,2013-05-06 01:42:00,
2013-05-05 20:47:00,63.4,44.5,30.02,NE,37,0.0,0.0,50,0.00,,SKC,0.00,VWS V14.01,2013-05-06 01:47:00,
2013-05-05 20:52:00,63.1,44.2,30.02,NE,36,0.0,1.0,50,0.00,,SKC,0.00,VWS V14.01,2013-05-06 01:52:00,
2013-05-05 20:57:00,62.9,44.5,30.02,NE,36,0.0,0.0,51,0.00,,SKC,0.00,VWS V14.01,2013-05-06 01:57:00,
2013-05-05 21:02:00,62.6,44.8,30.02,NE,37,0.0,0.0,52,0.00,,SKC,0.00,VWS V14.01,2013-05-06 02:02:00,
2013-05-05 21:07:00,62.1,44.3,30.02,NE,37,0.0,0.0,52,0.00,,SKC,0.00,VWS V14.01,2013-05-06 02:07:00,
2013-05-05 21:12:00,61.4,44.1,30.03,NE,37,0.0,0.0,53,0.00,,SKC,0.00,VWS V14.01,2013-05-06 02:12:00,
2013-05-05 21:17:00,60.9,44.6,30.03,NE,37,0.0,0.0,55,0.00,,SKC,0.00,VWS V14.01,2013-05-06 02:17:00,
2013-05-05 21:22:00,60.6,44.4,30.03,NE,36,0.0,0.0,55,0.00,,SKC,0.00,VWS V14.01,2013-05-06 02:22:00,
2013-05-05 21:27:00,60.5,44.7,30.03,NE,37,0.0,0.0,56,0.00,,SKC,0.00,VWS V14.01,2013-05-06 02:27:00,
2013-05-05 21:32:00,60.5,44.7,30.03,NE,37,0.0,0.0,56,0.00,,SKC,0.00,VWS V14.01,2013-05-06 02:32:00,
2013-05-05 21:37:00,60.4,44.2,30.03,NE,37,0.0,0.0,55,0.00,,SKC,0.00,VWS V14.01,2013-05-06 02:37:00,
2013-05-05 21:42:00,60.2,44.5,30.03,NE,36,0.0,0.0,56,0.00,,SKC,0.00,VWS V14.01,2013-05-06 02:42:00,
2013-05-05 21:47:00,59.9,44.2,30.03,NE,37,0.0,0.0,56,0.00,,SKC,0.00,VWS V14.01,2013-05-06 02:47:00,
2013-05-05 21:52:00,60.0,44.3,30.04,NE,37,1.0,1.0,56,0.00,,SKC,0.00,VWS V14.01,2013-05-06 02:52:00,
2013-05-05 21:57:00,59.8,44.5,30.03,NE,37,0.0,0.0,57,0.00,,SKC,0.00,VWS V14.01,2013-05-06 02:57:00,
2013-05-05 22:02:00,59.6,44.4,30.04,NE,37,0.0,0.0,57,0.00,,SKC,0.00,VWS V14.01,2013-05-06 03:02:00,
2013-05-05 22:07:00,59.6,44.4,30.04,NE,37,0.0,0.0,57,0.00,,SKC,0.00,VWS V14.01,2013-05-06 03:07:00,
2013-05-05 22:12:00,59.2,44.0,30.04,NE,37,0.0,0.0,57,0.00,,SKC,0.00,VWS V14.01,2013-05-06 03:12:00,
2013-05-05 22:17:00,59.0,43.8,30.05,NE,37,0.0,0.0,57,0.00,,SKC,0.00,VWS V14.01,2013-05-06 03:17:00,
2013-05-05 22:22:00,59.0,44.3,30.05,NE,36,0.0,1.0,58,0.00,,SKC,0.00,VWS V14.01,2013-05-06 03:22:00,
2013-05-05 22:27:00,58.3,44.0,30.05,NE,37,0.0,1.0,59,0.00,,SKC,0.00,VWS V14.01,2013-05-06 03:27:00,
2013-05-05 22:32:00,58.1,44.3,30.05,NE,37,0.0,0.0,60,0.00,,SKC,0.00,VWS V14.01,2013-05-06 03:32:00,
2013-05-05 22:37:00,57.9,44.1,30.05,NE,37,0.0,0.0,60,0.00,,SKC,0.00,VWS V14.01,2013-05-06 03:37:00,
2013-05-05 22:42:00,57.9,44.1,30.05,NE,37,0.0,0.0,60,0.00,,SKC,0.00,VWS V14.01,2013-05-06 03:42:00,
2013-05-05 22:47:00,58.2,44.0,30.05,NE,37,0.0,0.0,59,0.00,,SKC,0.00,VWS V14.01,2013-05-06 03:47:00,
2013-05-05 22:52:00,58.3,44.0,30.05,NE,37,0.0,0.0,59,0.00,,SKC,0.00,VWS V14.01,2013-05-06 03:52:00,
2013-05-05 22:57:00,58.4,44.1,30.05,NE,37,0.0,0.0,59,0.00,,SKC,0.00,VWS V14.01,2013-05-06 03:57:00,
2013-05-05 23:01:00,58.4,44.1,30.05,NE,37,0.0,0.0,59,0.00,,SKC,0.00,VWS V14.01,2013-05-06 04:01:00,
2013-05-05 23:06:00,58.5,44.2,30.06,NE,37,0.0,1.0,59,0.00,,SKC,0.00,VWS V14.01,2013-05-06 04:06:00,
2013-05-05 23:11:00,58.0,44.2,30.06,NE,37,0.0,1.0,60,0.00,,SKC,0.00,VWS V14.01,2013-05-06 04:11:00,
2013-05-05 23:16:00,57.6,43.8,30.06,NE,36,1.0,1.0,60,0.00,,SKC,0.00,VWS V14.01,2013-05-06 04:16:00,
2013-05-05 23:21:00,57.2,43.9,30.06,NE,36,0.0,1.0,61,0.00,,SKC,0.00,VWS V14.01,2013-05-06 04:21:00,
2013-05-05 23:26:00,57.2,44.3,30.06,NE,36,0.0,0.0,62,0.00,,SKC,0.00,VWS V14.01,2013-05-06 04:26:00,
2013-05-05 23:31:00,57.4,44.1,30.06,NE,36,0.0,0.0,61,0.00,,SKC,0.00,VWS V14.01,2013-05-06 04:31:00,
2013-05-05 23:36:00,57.4,44.5,30.06,NE,37,0.0,1.0,62,0.00,,SKC,0.00,VWS V14.01,2013-05-06 04:36:00,
2013-05-05 23:41:00,57.3,44.4,30.06,NE,38,0.0,2.0,62,0.00,,SKC,0.00,VWS V14.01,2013-05-06 04:41:00,
2013-05-05 23:46:00,57.4,44.5,30.06,NE,52,1.0,2.0,62,0.00,,SKC,0.00,VWS V14.01,2013-05-06 04:46:00,
2013-05-05 23:51:00,57.7,44.4,30.06,ENE,67,1.0,3.0,61,0.00,,SKC,0.00,VWS V14.01,2013-05-06 04:51:00,
2013-05-05 23:56:00,58.0,44.6,30.06,ENE,69,0.0,2.0,61,0.00,,SKC,0.00,VWS V14.01,2013-05-06 04:56:00,